createdAt,value
2022-12-13T00:01:55.815Z,91.10
2022-12-13T00:04:25.349Z,91.40
2022-12-13T00:06:53.987Z,91.20
2022-12-13T00:09:21.826Z,91.10
2022-12-13T00:11:50.196Z,90.90
2022-12-13T00:14:17.721Z,90.80
2022-12-13T00:16:49.820Z,90.80
2022-12-13T00:19:18.422Z,90.90
2022-12-13T00:21:46.138Z,91.00
2022-12-13T00:24:13.182Z,91.10
2022-12-13T00:26:40.563Z,91.10
2022-12-13T00:29:08.662Z,91.00
2022-12-13T00:31:58.687Z,90.90
2022-12-13T00:34:23.526Z,90.80
2022-12-13T00:36:50.682Z,90.90
2022-12-13T00:39:18.925Z,90.70
2022-12-13T00:41:47.304Z,90.40
2022-12-13T00:44:14.960Z,90.10
2022-12-13T00:46:42.708Z,89.90
2022-12-13T00:49:12.955Z,90.00
2022-12-13T00:51:40.896Z,90.30
2022-12-13T00:54:07.832Z,90.60
2022-12-13T00:56:37.584Z,90.70
2022-12-13T00:59:05.046Z,90.70
2022-12-13T01:01:36.446Z,91.20
2022-12-13T01:04:06.444Z,91.60
2022-12-13T01:06:45.048Z,91.70
2022-12-13T01:09:27.176Z,91.50
2022-12-13T01:12:00.373Z,91.10
2022-12-13T01:14:28.780Z,90.60
2022-12-13T01:16:56.096Z,90.30
2022-12-13T01:19:25.672Z,90.20
2022-12-13T01:22:04.627Z,90.10
2022-12-13T01:24:32.498Z,90.20
2022-12-13T01:27:00.420Z,90.40
2022-12-13T01:29:27.939Z,90.50
2022-12-13T01:31:55.356Z,90.10
2022-12-13T01:34:26.246Z,90.10
2022-12-13T01:36:58.322Z,90.20
2022-12-13T01:39:27.413Z,90.30
2022-12-13T01:41:59.350Z,90.40
2022-12-13T01:45:04.627Z,90.20
2022-12-13T01:47:48.948Z,89.90
2022-12-13T01:50:27.488Z,89.70
2022-12-13T01:52:57.232Z,89.50
2022-12-13T01:55:33.239Z,89.60
2022-12-13T01:58:08.979Z,89.60
2022-12-13T02:00:36.947Z,89.70
2022-12-13T02:03:08.781Z,90.10
2022-12-13T02:06:07.989Z,90.00
2022-12-13T02:08:37.411Z,90.00
2022-12-13T02:11:06.538Z,90.10
2022-12-13T02:13:33.462Z,90.20
2022-12-13T02:16:29.437Z,90.20
2022-12-13T02:19:33.882Z,90.10
2022-12-13T02:23:01.248Z,90.10
2022-12-13T02:26:07.287Z,90.00
2022-12-13T02:29:43.418Z,90.40
2022-12-13T02:32:51.763Z,90.40
2022-12-13T02:35:44.650Z,90.20
2022-12-13T02:38:41.049Z,90.30
2022-12-13T02:41:23.203Z,90.40
2022-12-13T02:44:04.105Z,90.50
2022-12-13T02:47:21.994Z,90.80
2022-12-13T02:49:57.588Z,91.20
2022-12-13T02:52:30.812Z,91.00
2022-12-13T02:54:59.148Z,90.70
2022-12-13T02:57:38.924Z,90.70
2022-12-13T03:00:17.705Z,90.80
2022-12-13T03:03:26.214Z,90.90
2022-12-13T03:06:33.302Z,90.60
2022-12-13T03:09:40.756Z,90.70
2022-12-13T03:13:14.977Z,90.60
2022-12-13T03:15:57.124Z,90.50
2022-12-13T03:18:29.116Z,90.70
2022-12-13T03:21:05.806Z,90.70
2022-12-13T03:23:33.169Z,90.60
2022-12-13T03:26:09.874Z,90.40
2022-12-13T03:28:39.235Z,90.40
2022-12-13T03:31:07.198Z,90.40
2022-12-13T03:33:34.699Z,90.20
2022-12-13T03:36:02.559Z,90.10
2022-12-13T03:38:30.494Z,90.00
2022-12-13T03:41:13.930Z,90.00
2022-12-13T03:43:41.529Z,90.10
2022-12-13T03:46:09.526Z,90.10
2022-12-13T03:48:36.883Z,90.20
2022-12-13T03:51:04.146Z,90.10
2022-12-13T03:53:33.176Z,90.20
2022-12-13T03:56:04.413Z,90.20
2022-12-13T03:58:35.777Z,90.30
2022-12-13T04:01:15.166Z,90.40
2022-12-13T04:03:45.902Z,90.50
2022-12-13T04:06:22.534Z,90.30
2022-12-13T04:08:52.396Z,90.30
2022-12-13T04:11:43.022Z,90.30
2022-12-13T04:14:21.933Z,90.20
2022-12-13T04:16:52.425Z,90.40
2022-12-13T04:19:23.056Z,90.70
2022-12-13T04:21:54.059Z,90.90
2022-12-13T04:24:31.424Z,91.10
2022-12-13T04:27:01.345Z,91.20
2022-12-13T04:29:33.862Z,91.20
2022-12-13T04:32:04.170Z,91.10
2022-12-13T04:34:36.851Z,91.00
2022-12-13T04:37:05.476Z,91.50
2022-12-13T04:39:34.255Z,92.40
2022-12-13T04:42:01.710Z,93.90
2022-12-13T04:44:32.573Z,96.10
2022-12-13T04:47:03.779Z,97.80
2022-12-13T04:49:32.152Z,98.40
2022-12-13T04:52:01.561Z,98.10
2022-12-13T04:54:35.610Z,97.40
2022-12-13T04:57:10.696Z,96.50
2022-12-13T04:59:38.899Z,96.00
2022-12-13T05:02:10.035Z,96.00
2022-12-13T05:04:36.960Z,96.10
2022-12-13T05:07:04.148Z,96.80
2022-12-13T05:09:31.383Z,97.60
2022-12-13T05:12:01.553Z,98.10
2022-12-13T05:14:32.711Z,98.50
2022-12-13T05:17:01.527Z,98.70
2022-12-13T05:19:30.539Z,98.80
2022-12-13T05:22:01.872Z,98.80
2022-12-13T05:24:31.616Z,99.00
2022-12-13T05:27:00.039Z,99.00
2022-12-13T05:29:27.750Z,98.90
2022-12-13T05:31:54.643Z,98.60
2022-12-13T05:34:21.504Z,98.20
2022-12-13T05:36:48.344Z,98.00
2022-12-13T05:39:29.138Z,97.80
2022-12-13T05:42:01.755Z,97.60
2022-12-13T05:44:32.867Z,97.60
2022-12-13T05:47:02.165Z,97.60
2022-12-13T05:49:30.032Z,97.50
2022-12-13T05:51:56.886Z,97.70
2022-12-13T05:54:23.824Z,98.00
2022-12-13T05:56:50.652Z,98.50
2022-12-13T05:59:17.791Z,98.60
2022-12-13T06:01:44.647Z,98.60
2022-12-13T06:04:13.096Z,98.60
2022-12-13T06:06:50.974Z,98.40
2022-12-13T06:09:20.066Z,98.20
2022-12-13T06:11:48.305Z,98.00
2022-12-13T06:14:21.637Z,98.00
2022-12-13T06:16:52.423Z,97.70
2022-12-13T06:19:22.558Z,97.10
2022-12-13T06:21:52.538Z,96.80
2022-12-13T06:24:23.246Z,96.60
2022-12-13T06:26:51.369Z,96.30
2022-12-13T06:29:24.588Z,96.20
2022-12-13T06:32:02.222Z,96.20
2022-12-13T06:34:35.725Z,96.40
2022-12-13T06:37:08.423Z,96.60
2022-12-13T06:39:35.478Z,96.90
2022-12-13T06:42:06.442Z,97.10
2022-12-13T06:44:34.750Z,97.00
2022-12-13T06:47:12.359Z,96.90
2022-12-13T06:49:43.842Z,96.70
2022-12-13T06:52:14.033Z,96.50
2022-12-13T06:54:43.249Z,96.20
2022-12-13T06:57:13.654Z,95.70
2022-12-13T06:59:41.288Z,95.30
2022-12-13T07:02:15.339Z,95.10
2022-12-13T07:04:51.419Z,95.10
2022-12-13T07:07:18.266Z,95.20
2022-12-13T07:09:45.191Z,95.60
2022-12-13T07:12:12.010Z,96.00
2022-12-13T07:14:40.641Z,96.10
2022-12-13T07:17:08.448Z,96.20
2022-12-13T07:19:36.016Z,96.10
2022-12-13T07:22:07.659Z,96.10
2022-12-13T07:24:35.600Z,96.10
2022-12-13T07:27:04.377Z,96.10
2022-12-13T07:29:31.515Z,97.00
2022-12-13T07:32:01.681Z,97.90
2022-12-13T07:34:30.429Z,99.20
2022-12-13T07:36:57.411Z,99.90
2022-12-13T07:39:26.172Z,99.90
2022-12-13T07:41:56.521Z,99.90
2022-12-13T07:44:24.892Z,99.90
2022-12-13T07:46:52.081Z,99.90
2022-12-13T07:49:19.553Z,99.90
2022-12-13T07:51:46.568Z,99.90
2022-12-13T07:54:13.488Z,99.90
2022-12-13T07:56:40.532Z,99.90
2022-12-13T07:59:08.633Z,99.90
2022-12-13T08:01:35.665Z,99.90
2022-12-13T08:04:04.781Z,99.90
2022-12-13T08:06:38.105Z,99.90
2022-12-13T08:09:05.861Z,99.90
2022-12-13T08:11:33.180Z,99.90
2022-12-13T08:14:00.493Z,99.90
2022-12-13T08:16:29.637Z,99.90
2022-12-13T08:19:02.365Z,99.90
2022-12-13T08:22:01.299Z,99.90
2022-12-13T08:24:30.779Z,99.90
2022-12-13T08:27:03.232Z,99.90
2022-12-13T08:29:35.954Z,99.90
2022-12-13T08:32:08.737Z,99.80
2022-12-13T08:34:36.735Z,99.80
2022-12-13T08:37:04.845Z,99.90
2022-12-13T08:39:38.724Z,99.90
2022-12-13T08:42:18.702Z,99.90
2022-12-13T08:44:49.806Z,99.90
2022-12-13T08:47:24.826Z,99.80
2022-12-13T08:50:02.377Z,99.50
2022-12-13T08:52:39.011Z,99.50
2022-12-13T08:55:13.401Z,98.00
2022-12-13T08:57:42.719Z,96.50
2022-12-13T09:03:47.880Z,94.10
2022-12-13T09:06:17.621Z,93.60
2022-12-13T09:08:51.526Z,93.50
2022-12-13T09:11:23.809Z,93.70
2022-12-13T09:14:02.259Z,92.70
2022-12-13T09:16:30.382Z,92.60
2022-12-13T09:19:06.564Z,91.50
2022-12-13T09:21:52.483Z,87.40
2022-12-13T09:24:29.239Z,85.20
2022-12-13T09:27:09.862Z,82.90
2022-12-13T09:29:39.069Z,79.80
2022-12-13T09:32:06.349Z,79.40
2022-12-13T09:34:33.440Z,78.00
2022-12-13T09:37:01.102Z,78.80
2022-12-13T09:39:29.701Z,75.30
2022-12-13T09:42:01.307Z,76.60
2022-12-13T09:44:46.439Z,79.60
2022-12-13T09:47:36.016Z,77.40
2022-12-13T09:50:25.367Z,74.40
2022-12-13T09:53:00.042Z,73.50
2022-12-13T09:55:35.326Z,64.60
2022-12-13T09:58:17.050Z,65.60
2022-12-13T10:00:47.221Z,62.90
2022-12-13T10:03:19.022Z,58.90
2022-12-13T10:06:01.191Z,57.00
2022-12-13T10:08:43.043Z,56.70
2022-12-13T10:11:19.595Z,59.10
2022-12-13T10:14:21.424Z,59.90
2022-12-13T10:16:57.944Z,58.20
2022-12-13T10:19:46.580Z,58.70
2022-12-13T10:22:21.047Z,58.60
2022-12-13T10:25:07.787Z,59.30
2022-12-13T10:27:48.605Z,58.80
2022-12-13T10:30:28.384Z,59.00
2022-12-13T10:33:03.654Z,58.40
2022-12-13T10:35:38.398Z,57.90
2022-12-13T10:38:08.310Z,59.00
2022-12-13T10:40:40.889Z,56.30
2022-12-13T10:43:22.226Z,57.30
2022-12-13T10:46:02.017Z,55.70
2022-12-13T10:48:52.372Z,54.90
2022-12-13T10:51:22.792Z,55.10
2022-12-13T10:54:00.511Z,53.70
2022-12-13T10:56:47.676Z,54.60
2022-12-13T10:59:37.564Z,52.00
2022-12-13T11:02:39.143Z,52.70
2022-12-13T11:05:29.364Z,54.10
2022-12-13T11:08:15.079Z,52.30
2022-12-13T11:10:43.227Z,52.30
2022-12-13T11:13:36.621Z,51.00
2022-12-13T11:16:26.651Z,50.40
2022-12-13T11:18:59.444Z,51.00
2022-12-13T11:21:33.073Z,51.40
2022-12-13T11:24:08.367Z,51.50
2022-12-13T11:26:42.685Z,51.80
2022-12-13T11:29:15.183Z,50.20
2022-12-13T11:32:07.178Z,51.20
2022-12-13T11:35:31.068Z,48.90
2022-12-13T11:38:33.534Z,49.10
2022-12-13T11:41:31.904Z,48.50
2022-12-13T11:44:23.353Z,49.10
2022-12-13T11:46:57.018Z,50.80
2022-12-13T11:49:42.336Z,50.50
2022-12-13T11:52:28.556Z,49.80
2022-12-13T11:55:19.957Z,49.60
2022-12-13T11:59:01.932Z,49.90
2022-12-13T12:01:41.057Z,49.60
2022-12-13T12:04:31.342Z,51.20
2022-12-13T12:07:32.446Z,51.90
2022-12-13T12:10:33.293Z,50.90
2022-12-13T12:13:51.128Z,51.30
2022-12-13T12:17:00.481Z,52.30
2022-12-13T12:19:38.953Z,53.60
2022-12-13T12:22:43.516Z,51.70
2022-12-13T12:25:42.459Z,50.20
2022-12-13T12:28:45.321Z,50.90
2022-12-13T12:31:53.108Z,52.00
2022-12-13T12:35:22.605Z,50.60
2022-12-13T12:38:35.245Z,51.20
2022-12-13T12:41:32.511Z,49.30
2022-12-13T12:44:43.776Z,50.20
2022-12-13T12:51:49.441Z,52.70
2022-12-13T12:55:32.574Z,53.20
2022-12-13T12:58:41.247Z,53.90
2022-12-13T13:01:18.555Z,52.10
2022-12-13T13:03:50.284Z,52.70
2022-12-13T13:06:43.010Z,52.60
2022-12-13T13:09:16.842Z,52.40
2022-12-13T13:11:57.354Z,53.10
2022-12-13T13:14:33.869Z,53.80
2022-12-13T13:17:16.774Z,52.80
2022-12-13T13:20:01.417Z,52.50
2022-12-13T13:22:43.282Z,51.40
2022-12-13T13:25:40.016Z,50.60
2022-12-13T13:28:18.499Z,51.00
2022-12-13T13:31:14.954Z,51.30
2022-12-13T13:33:51.033Z,51.50
2022-12-13T13:36:40.425Z,51.40
2022-12-13T13:39:38.074Z,53.30
2022-12-13T13:42:13.973Z,53.80
2022-12-13T13:44:49.674Z,52.50
2022-12-13T13:47:38.809Z,51.70
2022-12-13T13:50:08.692Z,52.90
2022-12-13T13:52:44.682Z,54.60
2022-12-13T13:56:01.592Z,55.90
2022-12-13T13:59:30.603Z,57.30
2022-12-13T14:03:29.340Z,58.50
2022-12-13T14:06:46.564Z,60.70
2022-12-13T14:09:57.207Z,63.40
2022-12-13T14:13:26.968Z,65.10
2022-12-13T14:16:15.048Z,66.80
2022-12-13T14:19:18.644Z,68.00
2022-12-13T14:21:55.100Z,68.90
2022-12-13T14:24:42.730Z,69.80
2022-12-13T14:27:36.024Z,70.20
2022-12-13T14:30:17.973Z,71.10
2022-12-13T14:32:52.720Z,72.20
2022-12-13T14:35:32.653Z,73.10
2022-12-13T14:38:19.196Z,73.90
2022-12-13T14:41:01.564Z,74.60
2022-12-13T14:43:33.913Z,75.10
2022-12-13T14:46:07.873Z,76.00
2022-12-13T14:48:47.767Z,76.70
2022-12-13T14:51:34.274Z,76.80
2022-12-13T14:54:07.700Z,76.60
2022-12-13T14:56:34.975Z,76.80
2022-12-13T14:59:12.509Z,77.50
2022-12-13T15:01:40.605Z,77.80
2022-12-13T15:04:27.027Z,78.10
2022-12-13T15:07:07.808Z,79.20
2022-12-13T15:09:43.892Z,80.60
2022-12-13T15:12:24.526Z,81.00
2022-12-13T15:15:18.787Z,81.20
2022-12-13T15:17:45.793Z,82.00
2022-12-13T15:20:41.491Z,82.60
2022-12-13T15:23:20.987Z,83.90
2022-12-13T15:26:28.739Z,84.10
2022-12-13T15:29:09.801Z,84.70
2022-12-13T15:31:39.890Z,85.60
2022-12-13T15:34:30.298Z,86.50
2022-12-13T15:37:03.345Z,87.50
2022-12-13T15:39:37.470Z,87.90
2022-12-13T15:42:05.075Z,89.00
2022-12-13T15:44:44.878Z,89.50
2022-12-13T15:47:27.701Z,90.10
2022-12-13T15:50:06.421Z,90.30
2022-12-13T15:52:41.051Z,90.00
2022-12-13T15:55:10.680Z,90.20
2022-12-13T15:57:58.528Z,90.30
2022-12-13T16:00:35.261Z,90.90
2022-12-13T16:03:18.829Z,91.80
2022-12-13T16:05:53.048Z,92.20
2022-12-13T16:08:38.079Z,92.10
2022-12-13T16:11:07.818Z,92.30
2022-12-13T16:13:38.140Z,92.30
2022-12-13T16:16:27.980Z,92.10
2022-12-13T16:18:59.823Z,91.70
2022-12-13T16:21:28.773Z,91.70
2022-12-13T16:23:55.645Z,91.90
2022-12-13T16:26:28.691Z,91.70
2022-12-13T16:28:59.343Z,92.50
2022-12-13T16:31:35.462Z,92.80
2022-12-13T16:34:05.383Z,93.10
2022-12-13T16:36:32.923Z,93.00
2022-12-13T16:38:59.914Z,93.10
2022-12-13T16:41:27.002Z,93.50
2022-12-13T16:44:01.340Z,93.70
2022-12-13T16:47:13.210Z,94.00
2022-12-13T16:49:27.329Z,94.20
2022-12-13T16:51:54.962Z,94.40
2022-12-13T16:54:24.777Z,94.30
2022-12-13T16:56:53.876Z,94.20
2022-12-13T16:59:26.988Z,94.30
2022-12-13T17:01:54.715Z,94.50
2022-12-13T17:04:26.899Z,94.60
2022-12-13T17:06:55.037Z,94.80
2022-12-13T17:09:24.227Z,94.80
2022-12-13T17:11:51.219Z,95.00
2022-12-13T17:14:18.076Z,95.30
2022-12-13T17:16:44.949Z,95.50
2022-12-13T17:19:14.447Z,95.70
2022-12-13T17:21:41.441Z,95.70
2022-12-13T17:24:08.583Z,95.70
2022-12-13T17:26:35.464Z,95.70
2022-12-13T17:29:02.874Z,95.70
2022-12-13T17:31:35.312Z,95.60
2022-12-13T17:34:04.573Z,95.50
2022-12-13T17:36:31.972Z,95.30
2022-12-13T17:38:59.178Z,95.10
2022-12-13T17:41:26.216Z,95.00
2022-12-13T17:43:53.084Z,95.10
2022-12-13T17:46:20.109Z,94.80
2022-12-13T17:48:47.308Z,94.90
2022-12-13T17:51:15.495Z,95.30
2022-12-13T17:53:44.350Z,95.40
2022-12-13T17:56:17.583Z,95.60
2022-12-13T17:58:44.596Z,95.40
2022-12-13T18:01:16.291Z,95.20
2022-12-13T18:03:43.830Z,95.30
2022-12-13T18:06:11.830Z,95.20
2022-12-13T18:08:42.280Z,94.90
2022-12-13T18:13:58.070Z,95.70
2022-12-13T18:16:34.104Z,97.10
2022-12-13T18:19:08.148Z,97.60
2022-12-13T18:21:36.433Z,97.40
2022-12-13T18:24:03.949Z,97.10
2022-12-13T18:26:30.786Z,97.10
2022-12-13T18:28:57.652Z,97.10
2022-12-13T18:31:25.568Z,96.80
2022-12-13T18:33:54.456Z,96.50
2022-12-13T18:36:25.443Z,96.50
2022-12-13T18:38:53.241Z,96.60
2022-12-13T18:41:26.259Z,96.70
2022-12-13T18:44:01.672Z,96.80
2022-12-13T18:46:34.958Z,97.10
2022-12-13T18:49:02.393Z,97.30
2022-12-13T18:51:29.270Z,97.50
2022-12-13T18:53:56.779Z,97.90
2022-12-13T18:56:24.457Z,98.40
2022-12-13T18:58:52.267Z,98.70
2022-12-13T19:01:20.912Z,98.80
2022-12-13T19:03:48.866Z,98.80
2022-12-13T19:06:24.647Z,98.80
2022-12-13T19:08:56.727Z,98.50
2022-12-13T19:11:27.004Z,98.30
2022-12-13T19:13:55.394Z,98.60
2022-12-13T19:16:25.251Z,98.80
2022-12-13T19:18:52.537Z,98.60
2022-12-13T19:21:22.768Z,98.40
2022-12-13T19:23:57.057Z,98.10
2022-12-13T19:26:28.244Z,97.90
2022-12-13T19:28:58.349Z,97.60
2022-12-13T19:31:31.848Z,97.30
2022-12-13T19:34:01.884Z,97.20
2022-12-13T19:36:32.151Z,96.80
2022-12-13T19:38:59.624Z,96.60
2022-12-13T19:41:32.156Z,96.50
2022-12-13T19:44:01.723Z,96.40
2022-12-13T19:46:28.623Z,96.30
2022-12-13T19:48:55.563Z,96.20
2022-12-13T19:51:23.637Z,96.10
2022-12-13T19:53:50.959Z,96.00
2022-12-13T19:56:22.524Z,95.80
2022-12-13T19:58:51.164Z,95.60
2022-12-13T20:01:18.854Z,95.40
2022-12-13T20:03:46.947Z,95.20
2022-12-13T20:06:19.879Z,95.10
2022-12-13T20:08:47.171Z,95.10
2022-12-13T20:11:20.368Z,95.00
2022-12-13T20:13:52.427Z,94.90
2022-12-13T20:16:24.897Z,94.90
2022-12-13T20:19:01.423Z,94.90
2022-12-13T20:21:29.635Z,94.90
2022-12-13T20:23:58.089Z,95.00
2022-12-13T20:26:30.168Z,94.80
2022-12-13T20:28:57.800Z,94.70
2022-12-13T20:31:33.073Z,94.60
2022-12-13T20:34:09.817Z,94.60
2022-12-13T20:36:37.754Z,94.60
2022-12-13T20:39:05.756Z,94.60
2022-12-13T20:41:36.285Z,94.60
2022-12-13T20:44:07.480Z,94.50
2022-12-13T20:46:35.579Z,94.50
2022-12-13T20:49:09.184Z,94.40
2022-12-13T20:51:41.528Z,94.40
2022-12-13T20:54:09.932Z,94.30
2022-12-13T20:56:39.747Z,94.30
2022-12-13T20:59:12.763Z,94.30
2022-12-13T21:01:41.806Z,94.30
2022-12-13T21:04:10.975Z,94.40
2022-12-13T21:06:41.451Z,94.40
2022-12-13T21:09:12.105Z,94.50
2022-12-13T21:11:47.711Z,94.40
2022-12-13T21:14:25.526Z,94.40
2022-12-13T21:16:56.277Z,94.70
2022-12-13T21:19:39.508Z,94.40
2022-12-13T21:22:07.197Z,94.30
2022-12-13T21:24:34.061Z,94.30
2022-12-13T21:27:01.006Z,94.40
2022-12-13T21:29:27.967Z,94.60
2022-12-13T21:31:55.183Z,94.80
2022-12-13T21:34:22.737Z,94.90
2022-12-13T21:36:52.312Z,94.90
2022-12-13T21:39:29.089Z,94.80
2022-12-13T21:41:57.400Z,94.60
2022-12-13T21:44:24.597Z,94.60
2022-12-13T21:49:39.053Z,94.70
2022-12-13T21:52:05.997Z,94.60
2022-12-13T21:54:33.010Z,94.60
2022-12-13T21:57:18.640Z,94.60
2022-12-13T21:59:46.278Z,94.50
2022-12-13T22:02:19.151Z,94.70
2022-12-13T22:04:57.364Z,94.40
2022-12-13T22:07:33.213Z,94.30
2022-12-13T22:10:02.262Z,94.30
2022-12-13T22:12:41.626Z,94.20
2022-12-13T22:15:15.613Z,94.20
2022-12-13T22:17:43.314Z,94.10
2022-12-13T22:20:15.298Z,94.20
2022-12-13T22:22:45.242Z,94.30
2022-12-13T22:25:12.261Z,94.40
2022-12-13T22:27:39.118Z,94.40
2022-12-13T22:30:07.319Z,94.40
2022-12-13T22:32:34.264Z,94.40
2022-12-13T22:35:01.170Z,94.20
2022-12-13T22:37:28.036Z,94.00
2022-12-13T22:39:55.024Z,94.00
2022-12-13T22:42:22.279Z,93.90
2022-12-13T22:44:49.194Z,93.90
2022-12-13T22:47:16.424Z,93.80
2022-12-13T22:49:43.249Z,93.80
2022-12-13T22:52:10.410Z,93.80
2022-12-13T22:54:37.286Z,93.70
2022-12-13T22:57:04.442Z,93.60
2022-12-13T22:59:31.412Z,93.50
2022-12-13T23:02:02.617Z,93.40
2022-12-13T23:04:31.721Z,93.50
2022-12-13T23:06:58.879Z,93.50
2022-12-13T23:09:25.715Z,93.50
2022-12-13T23:12:11.401Z,93.50
2022-12-13T23:14:38.245Z,93.50
2022-12-13T23:17:05.753Z,93.60
2022-12-13T23:19:49.537Z,93.60
2022-12-13T23:22:24.862Z,93.60
2022-12-13T23:24:53.349Z,93.50
2022-12-13T23:27:23.723Z,93.50
2022-12-13T23:29:50.615Z,93.60
2022-12-13T23:32:18.353Z,93.50
2022-12-13T23:34:45.479Z,93.50
2022-12-13T23:37:12.332Z,93.50
2022-12-13T23:39:39.264Z,93.40
2022-12-13T23:42:06.210Z,93.40
2022-12-13T23:44:33.196Z,93.50
2022-12-13T23:47:00.168Z,93.50
2022-12-13T23:49:27.024Z,93.40
2022-12-13T23:51:54.076Z,93.50
2022-12-13T23:54:20.957Z,93.50
2022-12-13T23:56:48.164Z,93.50
2022-12-13T23:59:15.032Z,93.30
